Melrude, Minnesota
Current Conditions -  °F | °C
As of 4:31 AM on Friday 24 Oct 2014 (Local Time) from KEVM Reporting Station
Haze Haze  
Wind Chill: 36°   Ceiling: 700
Heat Index: 36°   Visibility: 1.5mi
Dew Point: 36°   Wind: 0mph
Humidity: 100%   Direction: NA
Pressure: 29.88"   Gusts: NA
Location:  47.25°N, 92.42°W
Report Text: KEVM 240931Z AUTO 00000KT 1 1/2SM BR VV007 02/02 A2988 RMK AO2
Loading
Personal Weather Stations






























Interactive Weather Map
Tropical Storm Tracking
New forecast layout! Learn more

10-Day Weather Forecast

Advertisements
Track Severe Weather on mobile